New Haven, Wyoming
Current Conditions -  °F | °C
As of 2:15 PM on Friday 19 Dec 2014 (Local Time) from KSPF Reporting Station
Clear Clear  
Wind Chill: 38°   Ceiling: Unl
Heat Index: 41°   Visibility: 10mi
Dew Point: 25°   Wind: 5mph
Humidity: 53%   Direction: 150°SSE
Pressure: 29.92"   Gusts: NA
Location:  44.835°N, 104.693°W
Report Text: KSPF 192115Z AUTO 15004KT 10SM CLR 05/M04 A2992 RMK AO2
Loading
Personal Weather Stations






























Interactive Weather Map New forecast layout! Learn more

10-Day Weather Forecast

Advertisements
Track Severe Weather on mobile